createdAt,value
2022-09-06T00:00:37.531Z,0.00
2022-09-06T00:01:37.512Z,0.00
2022-09-06T00:02:37.547Z,0.00
2022-09-06T00:03:37.528Z,0.00
2022-09-06T00:04:37.605Z,0.00
2022-09-06T00:05:37.485Z,0.00
2022-09-06T00:06:37.459Z,0.00
2022-09-06T00:07:37.452Z,0.00
2022-09-06T00:08:37.447Z,0.00
2022-09-06T00:09:37.421Z,0.00
2022-09-06T00:10:37.423Z,0.00
2022-09-06T00:11:37.404Z,0.00
2022-09-06T00:12:37.391Z,0.00
2022-09-06T00:13:37.385Z,0.00
2022-09-06T00:14:37.373Z,0.00
2022-09-06T00:15:37.430Z,0.00
2022-09-06T00:16:37.344Z,0.00
2022-09-06T00:17:37.337Z,0.00
2022-09-06T00:18:37.326Z,0.00
2022-09-06T00:19:37.314Z,0.00
2022-09-06T00:20:37.315Z,0.00
2022-09-06T00:21:37.295Z,0.00
2022-09-06T00:22:37.281Z,0.00
2022-09-06T00:23:37.261Z,0.00
2022-09-06T00:24:37.262Z,0.00
2022-09-06T00:25:37.244Z,0.00
2022-09-06T00:26:37.249Z,0.00
2022-09-06T00:27:37.226Z,0.00
2022-09-06T00:28:37.215Z,0.00
2022-09-06T00:29:37.205Z,0.00
2022-09-06T00:30:37.193Z,0.00
2022-09-06T00:31:37.278Z,0.00
2022-09-06T00:32:37.193Z,0.00
2022-09-06T00:33:37.163Z,0.00
2022-09-06T00:34:37.138Z,0.00
2022-09-06T00:35:37.128Z,0.00
2022-09-06T00:36:37.133Z,0.00
2022-09-06T00:37:37.110Z,0.00
2022-09-06T00:38:37.097Z,0.00
2022-09-06T00:39:37.177Z,0.00
2022-09-06T00:40:37.995Z,0.00
2022-09-06T00:41:37.082Z,0.00
2022-09-06T00:42:37.049Z,0.00
2022-09-06T00:43:37.047Z,0.00
2022-09-06T00:44:37.042Z,0.00
2022-09-06T00:45:37.019Z,0.00
2022-09-06T00:46:37.150Z,0.00
2022-09-06T00:47:37.002Z,0.00
2022-09-06T00:48:36.991Z,0.00
2022-09-06T00:49:36.975Z,0.00
2022-09-06T00:50:36.973Z,0.00
2022-09-06T00:51:36.976Z,0.00
2022-09-06T00:52:36.957Z,0.00
2022-09-06T00:53:36.935Z,0.00
2022-09-06T00:54:36.925Z,0.00
2022-09-06T00:55:36.905Z,0.00
2022-09-06T00:56:36.933Z,0.00
2022-09-06T00:57:36.887Z,0.00
2022-09-06T00:58:36.871Z,0.00
2022-09-06T00:59:36.861Z,0.00
2022-09-06T01:00:36.855Z,0.00
2022-09-06T01:01:36.993Z,0.00
2022-09-06T01:02:36.975Z,0.00
2022-09-06T01:03:36.815Z,0.00
2022-09-06T01:04:36.807Z,0.00
2022-09-06T01:05:36.794Z,0.00
2022-09-06T01:06:36.805Z,0.00
2022-09-06T01:07:36.770Z,0.00
2022-09-06T01:08:36.768Z,0.00
2022-09-06T01:09:36.750Z,0.00
2022-09-06T01:10:36.736Z,0.00
2022-09-06T01:11:36.756Z,0.00
2022-09-06T01:12:36.721Z,0.00
2022-09-06T01:13:36.702Z,0.00
2022-09-06T01:14:36.690Z,0.00
2022-09-06T01:15:36.734Z,0.00
2022-09-06T01:16:36.692Z,0.00
2022-09-06T01:17:36.664Z,0.00
2022-09-06T01:18:36.646Z,0.00
2022-09-06T01:19:36.640Z,0.00
2022-09-06T01:20:36.627Z,0.00
2022-09-06T01:21:36.623Z,0.00
2022-09-06T01:22:36.606Z,0.00
2022-09-06T01:23:36.599Z,0.00
2022-09-06T01:24:36.587Z,0.00
2022-09-06T01:25:36.570Z,0.00
2022-09-06T01:26:36.573Z,0.00
2022-09-06T01:27:36.545Z,0.00
2022-09-06T01:28:36.539Z,0.00
2022-09-06T01:29:36.531Z,0.00
2022-09-06T01:30:36.557Z,0.00
2022-09-06T01:31:36.513Z,0.00
2022-09-06T01:32:36.490Z,0.00
2022-09-06T01:33:36.485Z,0.00
2022-09-06T01:34:36.471Z,0.00
2022-09-06T01:35:36.463Z,0.00
2022-09-06T01:36:45.821Z,0.00
2022-09-06T01:37:37.439Z,0.00
2022-09-06T01:38:36.425Z,0.00
2022-09-06T01:39:36.474Z,0.00
2022-09-06T01:40:36.497Z,0.00
2022-09-06T01:41:36.409Z,0.00
2022-09-06T01:42:36.388Z,0.00
2022-09-06T01:43:36.384Z,0.00
2022-09-06T01:44:36.351Z,0.00
2022-09-06T01:45:36.350Z,0.00
2022-09-06T01:46:36.399Z,0.00
2022-09-06T01:47:36.332Z,0.00
2022-09-06T01:48:36.307Z,0.00
2022-09-06T01:49:36.301Z,0.00
2022-09-06T01:50:36.293Z,0.00
2022-09-06T01:51:36.304Z,0.00
2022-09-06T01:52:36.271Z,0.00
2022-09-06T01:53:36.251Z,0.00
2022-09-06T01:54:36.249Z,0.00
2022-09-06T01:55:36.229Z,0.00
2022-09-06T01:56:36.239Z,0.00
2022-09-06T01:57:36.207Z,0.00
2022-09-06T01:58:36.198Z,0.00
2022-09-06T01:59:36.190Z,0.00
2022-09-06T02:00:36.179Z,0.00
2022-09-06T02:01:36.269Z,0.00
2022-09-06T02:02:36.196Z,0.00
2022-09-06T02:03:36.148Z,0.00
2022-09-06T02:04:36.129Z,0.00
2022-09-06T02:05:36.125Z,0.00
2022-09-06T02:06:36.130Z,0.00
2022-09-06T02:07:36.105Z,0.00
2022-09-06T02:08:36.084Z,0.00
2022-09-06T02:09:36.079Z,0.00
2022-09-06T02:10:36.066Z,0.00
2022-09-06T02:11:36.065Z,0.00
2022-09-06T02:12:36.037Z,0.00
2022-09-06T02:13:36.027Z,0.00
2022-09-06T02:14:36.023Z,0.00
2022-09-06T02:15:36.006Z,0.00
2022-09-06T02:16:36.127Z,0.00
2022-09-06T02:17:35.991Z,0.00
2022-09-06T02:18:35.979Z,0.00
2022-09-06T02:19:35.961Z,0.00
2022-09-06T02:20:35.959Z,0.00
2022-09-06T02:21:35.958Z,0.00
2022-09-06T02:22:35.927Z,0.00
2022-09-06T02:23:35.925Z,0.00
2022-09-06T02:24:35.903Z,0.00
2022-09-06T02:25:35.903Z,0.00
2022-09-06T02:26:35.901Z,0.00
2022-09-06T02:27:35.878Z,0.00
2022-09-06T02:28:35.865Z,0.00
2022-09-06T02:29:35.851Z,0.00
2022-09-06T02:30:35.914Z,0.00
2022-09-06T02:31:35.844Z,0.00
2022-09-06T02:32:35.822Z,0.00
2022-09-06T02:33:35.827Z,0.00
2022-09-06T02:34:35.809Z,0.00
2022-09-06T02:35:35.790Z,0.00
2022-09-06T02:36:35.787Z,0.00
2022-09-06T02:37:35.767Z,0.00
2022-09-06T02:38:35.748Z,0.00
2022-09-06T02:39:35.764Z,0.00
2022-09-06T02:40:35.733Z,0.00
2022-09-06T02:41:35.735Z,0.00
2022-09-06T02:42:35.711Z,0.00
2022-09-06T02:43:35.703Z,0.00
2022-09-06T02:44:35.693Z,0.00
2022-09-06T02:45:35.680Z,0.00
2022-09-06T02:46:35.684Z,0.00
2022-09-06T02:47:35.651Z,0.00
2022-09-06T02:48:35.646Z,0.00
2022-09-06T02:49:35.631Z,0.00
2022-09-06T02:50:35.615Z,0.00
2022-09-06T02:51:35.628Z,0.00
2022-09-06T02:52:35.591Z,0.00
2022-09-06T02:53:35.587Z,0.00
2022-09-06T02:54:35.570Z,0.00
2022-09-06T02:55:35.559Z,0.00
2022-09-06T02:56:35.571Z,0.00
2022-09-06T02:57:35.544Z,0.00
2022-09-06T02:58:35.527Z,0.00
2022-09-06T02:59:35.523Z,0.00
2022-09-06T03:00:35.511Z,0.00
2022-09-06T03:01:35.566Z,0.00
2022-09-06T03:02:35.544Z,0.00
2022-09-06T03:03:35.476Z,0.00
2022-09-06T03:04:35.457Z,0.00
2022-09-06T03:05:35.458Z,0.00
2022-09-06T03:06:35.457Z,0.00
2022-09-06T03:07:35.423Z,0.00
2022-09-06T03:08:35.410Z,0.00
2022-09-06T03:09:35.409Z,0.00
2022-09-06T03:10:35.396Z,0.00
2022-09-06T03:11:35.391Z,0.00
2022-09-06T03:12:35.365Z,0.00
2022-09-06T03:13:35.361Z,0.00
2022-09-06T03:14:35.350Z,0.00
2022-09-06T03:15:35.341Z,0.00
2022-09-06T03:16:35.369Z,0.00
2022-09-06T03:17:35.310Z,0.00
2022-09-06T03:18:35.294Z,0.00
2022-09-06T03:19:35.295Z,0.00
2022-09-06T03:20:37.186Z,0.00
2022-09-06T03:21:35.287Z,0.00
2022-09-06T03:22:35.271Z,0.00
2022-09-06T03:23:35.243Z,0.00
2022-09-06T03:24:35.235Z,0.00
2022-09-06T03:25:35.227Z,0.00
2022-09-06T03:26:35.231Z,0.00
2022-09-06T03:27:35.202Z,0.00
2022-09-06T03:28:35.184Z,0.00
2022-09-06T03:29:35.177Z,0.00
2022-09-06T03:30:35.220Z,0.00
2022-09-06T03:31:35.172Z,0.00
2022-09-06T03:32:35.146Z,0.00
2022-09-06T03:33:35.125Z,0.00
2022-09-06T03:34:35.124Z,0.00
2022-09-06T03:35:35.103Z,0.00
2022-09-06T03:36:35.116Z,0.00
2022-09-06T03:37:35.081Z,0.00
2022-09-06T03:38:35.077Z,0.00
2022-09-06T03:39:35.108Z,0.00
2022-09-06T03:40:35.055Z,0.00
2022-09-06T03:41:35.056Z,0.00
2022-09-06T03:42:35.034Z,0.00
2022-09-06T03:43:35.013Z,0.00
2022-09-06T03:44:35.002Z,0.00
2022-09-06T03:45:35.030Z,0.00
2022-09-06T03:46:34.993Z,0.00
2022-09-06T03:47:34.979Z,0.00
2022-09-06T03:48:34.961Z,0.00
2022-09-06T03:49:34.949Z,0.00
2022-09-06T03:50:34.941Z,0.00
2022-09-06T03:51:34.963Z,0.00
2022-09-06T03:52:34.922Z,0.00
2022-09-06T03:53:34.908Z,0.00
2022-09-06T03:54:34.890Z,0.00
2022-09-06T03:55:34.885Z,0.00
2022-09-06T03:56:34.886Z,0.00
2022-09-06T03:57:34.865Z,0.00
2022-09-06T03:58:34.851Z,0.00
2022-09-06T03:59:34.839Z,0.00
2022-09-06T04:00:34.834Z,0.00
2022-09-06T04:01:34.881Z,0.00
2022-09-06T04:02:34.828Z,0.00
2022-09-06T04:03:34.793Z,0.00
2022-09-06T04:04:34.785Z,0.00
2022-09-06T04:05:34.766Z,0.00
2022-09-06T04:06:34.776Z,0.00
2022-09-06T04:07:34.749Z,0.00
2022-09-06T04:08:34.730Z,0.00
2022-09-06T04:09:34.717Z,0.00
2022-09-06T04:10:34.716Z,0.00
2022-09-06T04:11:34.717Z,0.00
2022-09-06T04:12:34.686Z,0.00
2022-09-06T04:13:34.674Z,0.00
2022-09-06T04:14:34.670Z,0.00
2022-09-06T04:15:34.659Z,0.00
2022-09-06T04:16:34.733Z,0.00
2022-09-06T04:17:34.639Z,0.00
2022-09-06T04:18:34.628Z,0.00
2022-09-06T04:19:34.639Z,0.00
2022-09-06T04:20:34.608Z,0.00
2022-09-06T04:21:34.601Z,0.00
2022-09-06T04:22:34.577Z,0.00
2022-09-06T04:23:39.278Z,0.00
2022-09-06T04:24:35.557Z,0.00
2022-09-06T04:25:34.546Z,0.00
2022-09-06T04:26:34.546Z,0.00
2022-09-06T04:27:34.518Z,0.00
2022-09-06T04:28:34.539Z,4.00
2022-09-06T04:29:34.502Z,4.00
2022-09-06T04:30:34.484Z,4.00
2022-09-06T04:31:34.571Z,4.00
2022-09-06T04:32:34.468Z,4.00
2022-09-06T04:33:34.455Z,4.00
2022-09-06T04:34:34.462Z,4.00
2022-09-06T04:35:34.428Z,4.00
2022-09-06T04:36:34.437Z,8.00
2022-09-06T04:37:34.407Z,8.00
2022-09-06T04:38:34.407Z,12.00
2022-09-06T04:39:34.423Z,12.00
2022-09-06T04:40:34.384Z,16.00
2022-09-06T04:41:34.363Z,16.00
2022-09-06T04:42:34.359Z,16.00
2022-09-06T04:43:34.343Z,20.00
2022-09-06T04:44:34.325Z,24.00
2022-09-06T04:45:34.358Z,28.00
2022-09-06T04:46:34.308Z,28.00
2022-09-06T04:47:34.320Z,32.00
2022-09-06T04:48:34.281Z,36.00
2022-09-06T04:49:34.267Z,40.00
2022-09-06T04:50:34.258Z,44.00
2022-09-06T04:51:34.245Z,48.00
2022-09-06T04:52:34.257Z,52.00
2022-09-06T04:53:34.230Z,56.00
2022-09-06T04:54:34.223Z,64.00
2022-09-06T04:55:34.230Z,72.00
2022-09-06T04:56:34.193Z,76.00
2022-09-06T04:57:34.200Z,84.00
2022-09-06T04:58:34.176Z,92.00
2022-09-06T04:59:34.164Z,96.00
2022-09-06T05:00:34.159Z,104.00
2022-09-06T05:01:34.200Z,112.00
2022-09-06T05:02:34.208Z,120.00
2022-09-06T05:03:34.120Z,132.00
2022-09-06T05:04:34.110Z,140.00
2022-09-06T05:05:34.112Z,148.00
2022-09-06T05:06:34.085Z,160.00
2022-09-06T05:07:34.078Z,168.00
2022-09-06T05:08:34.063Z,184.00
2022-09-06T05:09:34.049Z,192.00
2022-09-06T05:10:34.042Z,208.00
2022-09-06T05:11:34.022Z,220.00
2022-09-06T05:12:34.049Z,236.00
2022-09-06T05:13:34.007Z,252.00
2022-09-06T05:14:33.998Z,268.00
2022-09-06T05:15:33.983Z,280.00
2022-09-06T05:16:34.041Z,292.00
2022-09-06T05:17:33.967Z,308.00
2022-09-06T05:18:33.945Z,324.00
2022-09-06T05:19:33.935Z,344.00
2022-09-06T05:20:33.929Z,360.00
2022-09-06T05:21:33.915Z,380.00
2022-09-06T05:22:33.940Z,396.00
2022-09-06T05:23:33.898Z,416.00
2022-09-06T05:24:33.882Z,440.00
2022-09-06T05:25:33.863Z,480.00
2022-09-06T05:26:33.863Z,536.00
2022-09-06T05:27:33.862Z,612.00
2022-09-06T05:28:33.832Z,688.00
2022-09-06T05:29:33.822Z,732.00
2022-09-06T05:30:33.818Z,804.00
2022-09-06T05:31:33.866Z,924.00
2022-09-06T05:32:33.807Z,1012.00
2022-09-06T05:33:33.782Z,1048.00
2022-09-06T05:34:33.767Z,1036.00
2022-09-06T05:35:33.772Z,1016.00
2022-09-06T05:36:33.759Z,988.00
2022-09-06T05:37:33.766Z,952.00
2022-09-06T05:38:34.041Z,964.00
2022-09-06T05:39:33.778Z,1072.00
2022-09-06T05:40:33.705Z,1204.00
2022-09-06T05:41:33.698Z,1280.00
2022-09-06T05:42:33.695Z,1264.00
2022-09-06T05:43:33.671Z,1212.00
2022-09-06T05:44:33.652Z,1144.00
2022-09-06T05:45:33.667Z,1064.00
2022-09-06T05:46:33.662Z,976.00
2022-09-06T05:47:33.630Z,916.00
2022-09-06T05:48:37.029Z,872.00
2022-09-06T05:49:33.612Z,840.00
2022-09-06T05:50:33.593Z,824.00
2022-09-06T05:51:33.572Z,820.00
2022-09-06T05:52:33.609Z,820.00
2022-09-06T05:53:33.558Z,832.00
2022-09-06T05:54:33.539Z,864.00
2022-09-06T05:55:33.530Z,904.00
2022-09-06T05:56:33.526Z,924.00
2022-09-06T05:57:33.527Z,924.00
2022-09-06T05:58:33.495Z,936.00
2022-09-06T05:59:33.485Z,940.00
2022-09-06T06:00:33.472Z,940.00
2022-09-06T06:01:33.558Z,952.00
2022-09-06T06:02:33.566Z,984.00
2022-09-06T06:03:33.438Z,1032.00
2022-09-06T06:04:33.427Z,1084.00
2022-09-06T06:05:33.424Z,1136.00
2022-09-06T06:06:33.416Z,1204.00
2022-09-06T06:07:33.413Z,1296.00
2022-09-06T06:08:33.390Z,1384.00
2022-09-06T06:09:33.377Z,1472.00
2022-09-06T06:10:37.883Z,1564.00
2022-09-06T06:11:34.348Z,1644.00
2022-09-06T06:12:33.355Z,1692.00
2022-09-06T06:13:33.336Z,1736.00
2022-09-06T06:14:33.326Z,1792.00
2022-09-06T06:15:33.304Z,1828.00
2022-09-06T06:16:33.359Z,1872.00
2022-09-06T06:17:33.302Z,1960.00
2022-09-06T06:18:33.278Z,2096.00
2022-09-06T06:19:33.278Z,2268.00
2022-09-06T06:20:33.249Z,2424.00
2022-09-06T06:21:33.250Z,2552.00
2022-09-06T06:22:33.250Z,2656.00
2022-09-06T06:23:33.218Z,2748.00
2022-09-06T06:24:33.211Z,2828.00
2022-09-06T06:25:33.190Z,2908.00
2022-09-06T06:26:33.188Z,2980.00
2022-09-06T06:27:33.194Z,3012.00
2022-09-06T06:28:33.162Z,3004.00
2022-09-06T06:29:33.147Z,2972.00
2022-09-06T06:30:33.149Z,2944.00
2022-09-06T06:31:33.255Z,2968.00
2022-09-06T06:32:33.143Z,3000.00
2022-09-06T06:33:33.109Z,3052.00
2022-09-06T06:34:33.098Z,3120.00
2022-09-06T06:35:35.173Z,3156.00
2022-09-06T06:36:34.078Z,3196.00
2022-09-06T06:37:33.075Z,3220.00
2022-09-06T06:38:33.052Z,3220.00
2022-09-06T06:39:33.095Z,3208.00
2022-09-06T06:40:33.030Z,3128.00
2022-09-06T06:41:33.024Z,2960.00
2022-09-06T06:42:33.020Z,2764.00
2022-09-06T06:43:32.995Z,2464.00
2022-09-06T06:44:32.985Z,2312.00
2022-09-06T06:45:33.051Z,2160.00
2022-09-06T06:46:32.958Z,2044.00
2022-09-06T06:47:32.973Z,1948.00
2022-09-06T06:48:32.950Z,1876.00
2022-09-06T06:49:32.955Z,1840.00
2022-09-06T06:50:33.070Z,1784.00
2022-09-06T06:51:33.899Z,1748.00
2022-09-06T06:52:32.908Z,1716.00
2022-09-06T06:53:32.886Z,1696.00
2022-09-06T06:54:32.875Z,1688.00
2022-09-06T06:55:32.862Z,1684.00
2022-09-06T06:56:32.842Z,1672.00
2022-09-06T06:57:32.853Z,1636.00
2022-09-06T06:58:32.832Z,1612.00
2022-09-06T06:59:32.816Z,1572.00
2022-09-06T07:00:32.990Z,1520.00
2022-09-06T07:01:32.970Z,1460.00
2022-09-06T07:02:32.828Z,1432.00
2022-09-06T07:03:32.763Z,1396.00
2022-09-06T07:04:32.759Z,1396.00
2022-09-06T07:07:35.552Z,1364.00
2022-09-06T07:08:32.707Z,1364.00
2022-09-06T07:10:34.122Z,1340.00
2022-09-06T07:11:32.679Z,1352.00
2022-09-06T07:12:32.683Z,1360.00
2022-09-06T07:13:32.662Z,1364.00
2022-09-06T07:14:32.646Z,1364.00
2022-09-06T07:15:32.643Z,1364.00
2022-09-06T07:16:32.738Z,1368.00
2022-09-06T07:17:32.619Z,1368.00
2022-09-06T07:18:32.595Z,1384.00
2022-09-06T07:22:32.562Z,1396.00
2022-09-06T07:24:33.525Z,1408.00
2022-09-06T07:25:32.523Z,1416.00
2022-09-06T07:26:32.668Z,1416.00
2022-09-06T07:27:48.910Z,1420.00
2022-09-06T07:28:33.482Z,1424.00
2022-09-06T07:29:32.498Z,1440.00
2022-09-06T07:30:32.467Z,1432.00
2022-09-06T07:32:33.452Z,1456.00
2022-09-06T07:33:32.429Z,1460.00
2022-09-06T07:34:32.426Z,1456.00
2022-09-06T07:35:32.432Z,1464.00
2022-09-06T07:36:32.394Z,1468.00
2022-09-06T07:37:32.404Z,1480.00
2022-09-06T07:38:32.372Z,1488.00
2022-09-06T07:39:32.411Z,1520.00
2022-09-06T07:40:32.343Z,1540.00
2022-09-06T07:41:32.340Z,1572.00
2022-09-06T07:42:36.150Z,1648.00
2022-09-06T07:43:32.320Z,1644.00
2022-09-06T07:44:32.307Z,1624.00
2022-09-06T07:45:33.173Z,1736.00
2022-09-06T07:46:32.363Z,1768.00
2022-09-06T07:48:01.673Z,1804.00
2022-09-06T07:48:33.252Z,1936.00
2022-09-06T07:49:34.768Z,1952.00
2022-09-06T07:50:48.910Z,1968.00
2022-09-06T07:51:33.229Z,2000.00
2022-09-06T07:53:33.558Z,2028.00
2022-09-06T07:54:33.174Z,2064.00
2022-09-06T07:55:32.187Z,2088.00
2022-09-06T07:56:32.163Z,2132.00
2022-09-06T07:57:32.174Z,2164.00
2022-09-06T07:58:32.157Z,2188.00
2022-09-06T07:59:32.137Z,2196.00
2022-09-06T08:00:32.124Z,2188.00
2022-09-06T08:01:32.114Z,2180.00
2022-09-06T08:02:32.183Z,2140.00
2022-09-06T08:03:32.097Z,2116.00
2022-09-06T08:04:32.079Z,2072.00
2022-09-06T08:07:40.609Z,2068.00
2022-09-06T08:09:33.032Z,2176.00
2022-09-06T08:10:32.014Z,2220.00
2022-09-06T08:11:31.998Z,2260.00
2022-09-06T08:12:32.004Z,2304.00
2022-09-06T08:13:31.974Z,2332.00
2022-09-06T08:14:31.976Z,2372.00
2022-09-06T08:15:33.519Z,2388.00
2022-09-06T08:16:32.097Z,2408.00
2022-09-06T08:17:31.978Z,2440.00
2022-09-06T08:18:31.928Z,2492.00
2022-09-06T08:19:31.916Z,2524.00
2022-09-06T08:20:31.897Z,2536.00
2022-09-06T08:21:31.886Z,2544.00
2022-09-06T08:22:31.891Z,2536.00
2022-09-06T08:23:31.870Z,2520.00
2022-09-06T08:24:31.857Z,2500.00
2022-09-06T08:25:31.842Z,2520.00
2022-09-06T08:26:31.860Z,2512.00
2022-09-06T08:27:31.835Z,2532.00
2022-09-06T08:28:31.824Z,2596.00
2022-09-06T08:29:31.806Z,2616.00
2022-09-06T08:30:31.788Z,2620.00
2022-09-06T08:31:31.885Z,2580.00
2022-09-06T08:32:31.785Z,2576.00
2022-09-06T08:33:31.774Z,2548.00
2022-09-06T08:34:31.755Z,2516.00
2022-09-06T08:35:31.732Z,2548.00
2022-09-06T08:36:31.722Z,2524.00
2022-09-06T08:37:31.718Z,2572.00
2022-09-06T08:38:31.695Z,2616.00
2022-09-06T08:39:31.785Z,2676.00
2022-09-06T08:40:31.676Z,2764.00
2022-09-06T08:41:31.664Z,2900.00
2022-09-06T08:42:31.677Z,3112.00
2022-09-06T08:43:31.647Z,3264.00
2022-09-06T08:45:32.646Z,3652.00
2022-09-06T08:46:31.712Z,3852.00
2022-09-06T08:47:31.642Z,4084.00
2022-09-06T08:48:31.586Z,4296.00
2022-09-06T08:49:31.597Z,4532.00
2022-09-06T08:50:31.566Z,4720.00
2022-09-06T08:51:33.376Z,4884.00
2022-09-06T08:52:31.563Z,5168.00
2022-09-06T08:53:31.533Z,5292.00
2022-09-06T08:54:31.519Z,5460.00
2022-09-06T08:55:31.514Z,5620.00
2022-09-06T08:56:31.528Z,5744.00
2022-09-06T08:57:31.508Z,5856.00
2022-09-06T08:58:31.474Z,5920.00
2022-09-06T08:59:31.475Z,6004.00
2022-09-06T09:00:31.496Z,6096.00
2022-09-06T09:01:31.444Z,6148.00
2022-09-06T09:02:31.451Z,6228.00
2022-09-06T09:03:31.423Z,6284.00
2022-09-06T09:04:31.409Z,6316.00
2022-09-06T09:05:31.397Z,6364.00
2022-09-06T09:06:31.391Z,6408.00
2022-09-06T09:07:31.388Z,6400.00
2022-09-06T09:08:31.426Z,6464.00
2022-09-06T09:09:31.352Z,6500.00
2022-09-06T09:10:31.340Z,6524.00
2022-09-06T09:11:31.332Z,6568.00
2022-09-06T09:12:31.343Z,6540.00
2022-09-06T09:13:31.321Z,6544.00
2022-09-06T09:14:31.296Z,6608.00
2022-09-06T09:15:31.295Z,6620.00
2022-09-06T09:16:31.354Z,6612.00
2022-09-06T09:17:31.319Z,6652.00
2022-09-06T09:18:31.257Z,6672.00
2022-09-06T09:19:31.264Z,6640.00
2022-09-06T09:20:31.274Z,6664.00
2022-09-06T09:21:31.292Z,6624.00
2022-09-06T09:22:31.231Z,6656.00
2022-09-06T09:23:31.199Z,6624.00
2022-09-06T09:24:31.197Z,6608.00
2022-09-06T09:25:31.185Z,6656.00
2022-09-06T09:26:31.162Z,6616.00
2022-09-06T09:27:31.175Z,6608.00
2022-09-06T09:28:31.146Z,6608.00
2022-09-06T09:29:35.690Z,6616.00
2022-09-06T09:30:48.066Z,6620.00
2022-09-06T09:31:32.231Z,6620.00
2022-09-06T09:32:31.130Z,6616.00
2022-09-06T09:33:31.094Z,6596.00
2022-09-06T09:34:31.085Z,6416.00
2022-09-06T09:35:31.065Z,6388.00
2022-09-06T09:36:31.165Z,6576.00
2022-09-06T09:37:47.047Z,6352.00
2022-09-06T09:38:32.050Z,6324.00
2022-09-06T09:39:31.074Z,6316.00
2022-09-06T09:40:31.011Z,6700.00
2022-09-06T09:41:31.001Z,6560.00
2022-09-06T09:42:31.014Z,6568.00
2022-09-06T09:43:31.006Z,6580.00
2022-09-06T09:44:30.973Z,6608.00
2022-09-06T09:45:30.958Z,6620.00
2022-09-06T09:46:30.977Z,6628.00
2022-09-06T09:47:30.941Z,6636.00
2022-09-06T09:48:30.944Z,6648.00
2022-09-06T09:49:30.918Z,6716.00
2022-09-06T09:50:30.904Z,6676.00
2022-09-06T09:51:30.905Z,6676.00
2022-09-06T09:52:30.978Z,6700.00
2022-09-06T09:53:30.900Z,6704.00
2022-09-06T09:54:30.872Z,6732.00
2022-09-06T09:55:30.853Z,6732.00
2022-09-06T09:56:30.852Z,6724.00
2022-09-06T09:57:30.828Z,6756.00
2022-09-06T09:58:30.829Z,6764.00
2022-09-06T09:59:30.815Z,6792.00
2022-09-06T10:00:30.845Z,6816.00
2022-09-06T10:01:30.782Z,6840.00
2022-09-06T10:02:30.782Z,6824.00
2022-09-06T10:03:31.244Z,6908.00
2022-09-06T10:04:46.237Z,6912.00
2022-09-06T10:05:31.747Z,7040.00
2022-09-06T10:07:31.717Z,7060.00
2022-09-06T10:08:30.731Z,7124.00
2022-09-06T10:09:30.703Z,7272.00
2022-09-06T10:10:30.691Z,7412.00
2022-09-06T10:11:30.692Z,7492.00
2022-09-06T10:12:30.668Z,7620.00
2022-09-06T10:13:30.687Z,7740.00
2022-09-06T10:14:30.642Z,8156.00
2022-09-06T10:15:30.642Z,8468.00
2022-09-06T10:16:30.670Z,9592.00
2022-09-06T10:17:30.608Z,10548.00
2022-09-06T10:18:30.618Z,27264.00
2022-09-06T10:19:30.592Z,42016.00
2022-09-06T10:20:30.586Z,40832.00
2022-09-06T10:21:30.587Z,66144.00
2022-09-06T10:22:30.573Z,60416.00
2022-09-06T10:24:31.544Z,60064.00
2022-09-06T10:25:30.534Z,72640.00
2022-09-06T10:26:30.511Z,75936.00
2022-09-06T10:27:30.510Z,79808.00
2022-09-06T10:28:30.513Z,79200.00
2022-09-06T10:29:30.499Z,77184.00
2022-09-06T10:30:30.476Z,77664.00
2022-09-06T10:31:30.541Z,76768.00
2022-09-06T10:32:31.216Z,75456.00
2022-09-06T10:33:30.457Z,72864.00
2022-09-06T10:34:30.427Z,72320.00
2022-09-06T10:35:30.431Z,72192.00
2022-09-06T10:36:30.408Z,73184.00
2022-09-06T10:37:30.398Z,70272.00
2022-09-06T10:38:30.405Z,70208.00
2022-09-06T10:39:30.409Z,39840.00
2022-09-06T10:40:30.370Z,17632.00
2022-09-06T10:41:30.353Z,9520.00
2022-09-06T10:42:30.347Z,8280.00
2022-09-06T10:43:30.375Z,7676.00
2022-09-06T10:44:30.328Z,7308.00
2022-09-06T10:45:30.317Z,7032.00
2022-09-06T10:46:30.417Z,6816.00
2022-09-06T10:47:30.296Z,6680.00
2022-09-06T10:48:30.486Z,6584.00
2022-09-06T10:49:30.275Z,6556.00
2022-09-06T10:50:30.260Z,6492.00
2022-09-06T10:51:30.259Z,6352.00
2022-09-06T10:52:30.247Z,6280.00
2022-09-06T10:53:30.240Z,6228.00
2022-09-06T10:54:30.222Z,6256.00
2022-09-06T10:55:30.213Z,6552.00
2022-09-06T10:56:30.210Z,11840.00
2022-09-06T11:00:30.158Z,5748.00
2022-09-06T11:01:30.250Z,5708.00
2022-09-06T11:02:30.346Z,5664.00
2022-09-06T11:04:31.113Z,5584.00
2022-09-06T11:06:31.094Z,5528.00
2022-09-06T11:07:30.092Z,5500.00
2022-09-06T11:09:31.066Z,5496.00
2022-09-06T11:10:30.066Z,5496.00
2022-09-06T11:11:30.073Z,5496.00
2022-09-06T11:12:30.037Z,5488.00
2022-09-06T11:13:30.046Z,5516.00
2022-09-06T11:14:30.015Z,5520.00
2022-09-06T11:15:30.000Z,5568.00
2022-09-06T11:16:30.041Z,5664.00
2022-09-06T11:17:29.987Z,5672.00
2022-09-06T11:18:29.999Z,5644.00
2022-09-06T11:19:29.960Z,5584.00
2022-09-06T11:20:32.295Z,5568.00
2022-09-06T11:21:29.934Z,5584.00
2022-09-06T11:22:29.919Z,5584.00
2022-09-06T11:23:30.062Z,5608.00
2022-09-06T11:24:29.900Z,5620.00
2022-09-06T11:25:29.894Z,5612.00
2022-09-06T11:26:29.882Z,5628.00
2022-09-06T11:27:29.875Z,5644.00
2022-09-06T11:28:29.875Z,5652.00
2022-09-06T11:29:29.853Z,5668.00
2022-09-06T11:30:29.855Z,5808.00
2022-09-06T11:32:30.837Z,5768.00
2022-09-06T11:33:29.935Z,5640.00
2022-09-06T11:34:29.791Z,5648.00
2022-09-06T11:35:29.793Z,5784.00
2022-09-06T11:36:29.775Z,5780.00
2022-09-06T11:37:29.766Z,5776.00
2022-09-06T11:38:29.766Z,6164.00
2022-09-06T11:40:30.784Z,6040.00
2022-09-06T11:41:29.723Z,6056.00
2022-09-06T11:42:29.706Z,5728.00
2022-09-06T11:43:29.709Z,5788.00
2022-09-06T11:44:29.689Z,5888.00
2022-09-06T11:45:29.689Z,6012.00
2022-09-06T11:46:29.693Z,6064.00
2022-09-06T11:47:29.670Z,5996.00
2022-09-06T11:48:29.665Z,5940.00
2022-09-06T11:49:29.658Z,5956.00
2022-09-06T11:50:29.640Z,5924.00
2022-09-06T11:51:29.631Z,5892.00
2022-09-06T11:52:29.619Z,5912.00
2022-09-06T11:53:29.790Z,5852.00
2022-09-06T11:54:29.592Z,5756.00
2022-09-06T11:55:29.585Z,5772.00
2022-09-06T11:56:29.569Z,5872.00
2022-09-06T11:57:29.551Z,5880.00
2022-09-06T11:58:29.556Z,5996.00
2022-09-06T11:59:29.551Z,5960.00
2022-09-06T12:00:29.536Z,5920.00
2022-09-06T12:01:29.532Z,5692.00
2022-09-06T12:02:29.691Z,5544.00
2022-09-06T12:04:30.494Z,5408.00
2022-09-06T12:05:29.469Z,5412.00
2022-09-06T12:06:29.463Z,5456.00
2022-09-06T12:07:29.452Z,5440.00
2022-09-06T12:08:29.620Z,5448.00
2022-09-06T12:09:29.441Z,1404.00
2022-09-06T12:10:29.426Z,1332.00
2022-09-06T12:11:30.658Z,1404.00
2022-09-06T12:12:29.392Z,1408.00
2022-09-06T12:13:29.392Z,1436.00
2022-09-06T12:14:29.400Z,1592.00
2022-09-06T12:15:29.368Z,1964.00
2022-09-06T12:16:29.410Z,3424.00
2022-09-06T12:17:29.340Z,2284.00
2022-09-06T12:18:29.420Z,2228.00
2022-09-06T12:19:29.325Z,2188.00
2022-09-06T12:20:29.326Z,1944.00
2022-09-06T12:21:29.305Z,1860.00
2022-09-06T12:22:29.300Z,2116.00
2022-09-06T12:23:29.285Z,2236.00
2022-09-06T12:24:29.272Z,2448.00
2022-09-06T12:25:29.267Z,2404.00
2022-09-06T12:26:29.256Z,2668.00
2022-09-06T12:27:29.233Z,5352.00
2022-09-06T12:28:29.392Z,6388.00
2022-09-06T12:29:29.220Z,6880.00
2022-09-06T12:30:29.229Z,6968.00
2022-09-06T12:31:29.330Z,7376.00
2022-09-06T12:32:31.630Z,7408.00
2022-09-06T12:33:29.169Z,7184.00
2022-09-06T12:34:29.179Z,6696.00
2022-09-06T12:36:30.185Z,6232.00
2022-09-06T12:37:29.133Z,6056.00
2022-09-06T12:38:29.194Z,5872.00
2022-09-06T12:39:29.195Z,5676.00
2022-09-06T12:40:29.098Z,5592.00
2022-09-06T12:41:29.106Z,5488.00
2022-09-06T12:42:29.082Z,5428.00
2022-09-06T12:43:29.076Z,5388.00
2022-09-06T12:44:29.091Z,5380.00
2022-09-06T12:45:29.045Z,5408.00
2022-09-06T12:46:29.127Z,5432.00
2022-09-06T12:47:29.025Z,5472.00
2022-09-06T12:48:29.154Z,5584.00
2022-09-06T12:49:29.008Z,5860.00
2022-09-06T12:50:29.004Z,7448.00
2022-09-06T12:51:28.996Z,7172.00
2022-09-06T12:52:28.972Z,5956.00
2022-09-06T12:53:28.965Z,6084.00
2022-09-06T12:54:28.957Z,6084.00
2022-09-06T12:55:28.940Z,6136.00
2022-09-06T12:56:28.954Z,6236.00
2022-09-06T12:57:28.928Z,6076.00
2022-09-06T12:58:29.141Z,5440.00